Time;durP1;ratioP1;P1;durP2;ratioP2;P2;SDS_P1;SDS_P2;PMS_P1;PMS_P2;Temp;Humidity;BMP_temperature;BMP_pressure;BME280_temperature;BME280_humidity;BME280_pressure;Samples;Min_cycle;Max_cycle;Signal;HPM_P1;HPM_P2
2022/01/13 00:01:45;;;;;;;;;175.00;158.50;3.50;55.10;;;;;;5033887;28;8782;-71
2022/01/13 00:04:13;;;;;;;;;197.00;172.25;3.80;54.00;;;;;;5033995;28;8782;-71
2022/01/13 00:06:39;;;;;;;;;165.75;146.00;4.10;53.40;;;;;;5033869;28;8800;-71
2022/01/13 00:09:06;;;;;;;;;204.25;184.50;4.10;53.00;;;;;;5033693;28;8802;-70
2022/01/13 00:11:32;;;;;;;;;194.00;175.00;4.00;53.30;;;;;;5033780;28;8794;-71
2022/01/13 00:22:02;;;;;;;;;219.75;192.25;3.20;57.00;;;;;;5051287;28;8779;-73
2022/01/13 00:24:28;;;;;;;;;211.00;191.50;3.00;58.50;;;;;;5055593;28;8771;-72
2022/01/13 00:26:55;;;;;;;;;188.25;172.50;3.20;57.30;;;;;;5055729;28;8775;-72
2022/01/13 00:29:28;;;;;;;;;194.25;180.75;3.20;56.80;;;;;;5055309;28;9441;-71
2022/01/13 00:31:54;;;;;;;;;193.25;175.25;3.00;57.70;;;;;;5053927;28;8774;-71
2022/01/13 00:34:20;;;;;;;;;207.50;185.00;3.20;56.60;;;;;;5055186;28;8802;-72
2022/01/13 00:36:45;;;;;;;;;222.25;205.00;3.20;56.80;;;;;;5055406;28;8747;-71
2022/01/13 00:39:12;;;;;;;;;208.75;193.75;2.90;58.40;;;;;;5055345;28;9493;-72
2022/01/13 00:41:39;;;;;;;;;225.25;201.75;2.80;58.80;;;;;;5055216;28;8763;-70
2022/01/13 00:44:07;;;;;;;;;214.25;204.00;3.10;57.70;;;;;;5055410;28;8751;-71
2022/01/13 00:46:45;;;;;;;;;229.00;207.75;3.50;56.50;;;;;;5055047;28;8786;-70
2022/01/13 00:49:12;;;;;;;;;225.75;197.75;3.90;55.40;;;;;;5055328;28;8840;-70
2022/01/13 00:51:40;;;;;;;;;183.25;164.25;4.20;54.50;;;;;;5055196;28;8782;-71
2022/01/13 00:54:07;;;;;;;;;139.75;123.75;3.80;54.10;;;;;;5055199;28;8779;-71
2022/01/13 00:56:34;;;;;;;;;146.50;125.50;3.00;55.80;;;;;;5054935;28;8759;-72
2022/01/13 00:59:03;;;;;;;;;137.00;124.00;2.90;57.40;;;;;;5055201;28;8740;-72
2022/01/13 01:01:29;;;;;;;;;136.50;124.00;2.70;58.10;;;;;;5054890;28;8817;-71
2022/01/13 01:03:55;;;;;;;;;160.25;140.00;3.10;57.60;;;;;;5054815;28;8771;-72
2022/01/13 01:06:21;;;;;;;;;166.00;143.25;3.40;56.30;;;;;;5055005;28;8755;-73
2022/01/13 01:08:47;;;;;;;;;138.75;120.25;3.70;56.60;;;;;;5055015;28;8823;-72
2022/01/13 01:11:13;;;;;;;;;131.50;117.00;3.60;55.50;;;;;;5054939;28;8791;-72
2022/01/13 01:13:39;;;;;;;;;144.25;124.25;3.90;54.60;;;;;;5054565;28;8783;-72
2022/01/13 01:16:10;;;;;;;;;136.25;127.50;3.90;54.60;;;;;;5054506;28;8880;-71
2022/01/13 01:23:55;;;;;;;;;148.75;128.00;4.00;54.90;;;;;;5054563;28;8873;-71
2022/01/13 01:31:34;;;;;;;;;148.00;127.75;3.40;55.60;;;;;;5054454;28;8836;-73
2022/01/13 01:36:26;;;;;;;;;124.00;113.00;2.90;58.20;;;;;;5054657;28;8777;-72
2022/01/13 01:38:55;;;;;;;;;118.00;104.75;2.80;59.50;;;;;;5039860;28;8818;-72
2022/01/13 01:41:21;;;;;;;;;129.00;122.00;2.90;59.70;;;;;;5034648;28;8765;-72
2022/01/13 01:43:48;;;;;;;;;129.50;118.75;2.70;61.40;;;;;;5034702;28;8801;-71
2022/01/13 01:46:14;;;;;;;;;120.75;108.50;2.80;61.40;;;;;;5034369;28;8769;-72
2022/01/13 01:48:39;;;;;;;;;141.75;127.50;3.20;60.20;;;;;;5034314;28;8804;-71
2022/01/13 01:51:07;;;;;;;;;138.75;125.50;3.60;58.70;;;;;;5034255;28;8765;-71
2022/01/13 01:53:33;;;;;;;;;150.75;133.75;3.40;58.50;;;;;;5034244;28;8792;-71
2022/01/13 01:55:59;;;;;;;;;139.25;123.50;3.80;58.00;;;;;;5034151;28;8823;-72
2022/01/13 01:58:27;;;;;;;;;102.25;82.50;4.00;56.80;;;;;;5034268;28;8774;-72
2022/01/13 02:00:54;;;;;;;;;155.75;137.00;4.00;56.50;;;;;;5034158;28;8786;-72
2022/01/13 02:03:22;;;;;;;;;158.25;136.00;3.80;57.30;;;;;;5034445;28;8883;-71
2022/01/13 02:05:48;;;;;;;;;161.25;148.00;3.60;58.00;;;;;;5034126;28;8761;-72
2022/01/13 02:08:14;;;;;;;;;155.00;132.25;3.70;57.70;;;;;;5034282;28;8832;-70
2022/01/13 02:10:40;;;;;;;;;167.75;151.75;3.70;57.60;;;;;;5033095;28;8774;-71
2022/01/13 02:13:11;;;;;;;;;158.75;142.50;3.80;57.90;;;;;;5034338;28;8839;-70
2022/01/13 02:16:01;;;;;;;;;140.75;129.50;3.80;57.40;;;;;;5034272;28;8805;-71
2022/01/13 02:18:30;;;;;;;;;145.25;125.50;3.30;59.40;;;;;;5034073;28;8935;-70
2022/01/13 02:20:56;;;;;;;;;140.75;130.25;3.50;58.80;;;;;;5034293;28;8786;-71
2022/01/13 02:23:34;;;;;;;;;126.75;119.25;3.10;58.70;;;;;;5033997;28;8802;-70
2022/01/13 02:26:00;;;;;;;;;134.50;120.75;2.70;60.70;;;;;;5034054;28;8880;-70
2022/01/13 02:28:26;;;;;;;;;149.50;131.00;3.30;59.40;;;;;;5033907;28;8814;-69
2022/01/13 02:30:52;;;;;;;;;143.50;128.00;3.60;58.00;;;;;;5034198;28;8777;-70
2022/01/13 02:33:17;;;;;;;;;154.50;129.25;3.60;58.00;;;;;;5034182;28;8774;-72
2022/01/13 02:35:43;;;;;;;;;147.00;131.75;3.60;57.90;;;;;;5034080;28;8809;-69
2022/01/13 02:38:11;;;;;;;;;159.25;141.75;3.50;58.90;;;;;;5033030;28;8786;-70
2022/01/13 02:40:38;;;;;;;;;153.00;134.50;3.50;58.60;;;;;;5035302;28;8753;-70
2022/01/13 02:43:05;;;;;;;;;116.75;112.25;3.70;58.10;;;;;;5037533;28;8770;-71
2022/01/13 02:45:38;;;;;;;;;126.00;115.50;3.60;58.00;;;;;;5037780;28;8762;-71
2022/01/13 02:50:39;;;;;;;;;151.00;132.25;3.80;57.70;;;;;;5037694;28;8868;-71
2022/01/13 02:53:06;;;;;;;;;143.00;121.50;3.60;58.00;;;;;;5036339;28;8908;-72
2022/01/13 02:55:32;;;;;;;;;147.00;132.75;3.80;57.60;;;;;;5037240;28;8817;-70
2022/01/13 02:57:58;;;;;;;;;134.75;125.25;3.70;57.60;;;;;;5037249;28;8794;-71
2022/01/13 03:00:24;;;;;;;;;129.75;116.00;3.60;58.00;;;;;;5037501;28;8782;-71
2022/01/13 03:02:50;;;;;;;;;135.50;124.00;3.90;57.50;;;;;;5037152;28;8796;-70
2022/01/13 03:05:16;;;;;;;;;121.75;104.25;3.90;57.20;;;;;;5037211;28;8784;-72
2022/01/13 03:07:42;;;;;;;;;134.25;117.50;4.10;56.50;;;;;;5037088;28;8843;-72
2022/01/13 03:10:10;;;;;;;;;149.25;133.25;4.00;56.60;;;;;;5037055;28;8770;-72
2022/01/13 03:12:39;;;;;;;;;155.50;134.75;3.70;58.30;;;;;;5037364;28;8761;-71
2022/01/13 03:15:05;;;;;;;;;156.50;137.25;3.70;57.40;;;;;;5037114;28;8793;-72
2022/01/13 03:17:31;;;;;;;;;135.25;125.50;3.70;57.40;;;;;;5036948;28;8784;-71
2022/01/13 03:19:57;;;;;;;;;138.50;126.00;3.20;58.50;;;;;;5037101;28;8774;-70
2022/01/13 03:22:22;;;;;;;;;141.25;121.75;3.30;58.40;;;;;;5036741;28;9449;-71
2022/01/13 03:24:48;;;;;;;;;129.00;119.00;3.50;58.00;;;;;;5036824;28;8867;-70
2022/01/13 03:27:20;;;;;;;;;111.25;96.00;3.60;57.60;;;;;;5036786;28;8762;-72
2022/01/13 03:29:47;;;;;;;;;133.75;120.75;3.50;57.00;;;;;;5037049;28;8924;-72
2022/01/13 03:32:13;;;;;;;;;141.50;130.00;3.40;57.40;;;;;;5036923;28;8786;-71
2022/01/13 03:34:39;;;;;;;;;151.75;135.00;3.40;57.40;;;;;;5036543;28;8798;-69
2022/01/13 03:37:05;;;;;;;;;148.25;137.50;3.20;58.30;;;;;;5036707;28;8794;-71
2022/01/13 03:39:30;;;;;;;;;158.00;136.75;3.00;59.10;;;;;;5036802;28;8801;-71
2022/01/13 03:41:56;;;;;;;;;144.50;133.00;2.50;61.00;;;;;;5036468;28;9528;-72
2022/01/13 03:44:28;;;;;;;;;150.50;133.00;2.40;61.40;;;;;;5036662;28;8900;-71
2022/01/13 03:47:04;;;;;;;;;142.25;132.25;2.20;62.30;;;;;;5036413;28;8737;-70
2022/01/13 03:49:31;;;;;;;;;172.75;154.25;2.10;62.60;;;;;;5036634;28;8769;-71
2022/01/13 03:52:00;;;;;;;;;171.25;149.25;2.30;62.30;;;;;;5035561;28;8831;-70
2022/01/13 03:54:32;;;;;;;;;135.50;126.50;2.50;61.10;;;;;;5036165;28;8916;-70
2022/01/13 03:57:32;;;;;;;;;117.50;104.75;1.60;63.80;;;;;;5036495;28;9486;-70
2022/01/13 04:00:40;;;;;;;;;126.00;112.75;1.30;65.90;;;;;;5036175;28;8762;-72
2022/01/13 04:03:07;;;;;;;;;123.75;115.00;1.80;64.30;;;;;;5036079;28;8762;-71
2022/01/13 04:05:52;;;;;;;;;114.00;103.25;2.30;62.90;;;;;;5036001;28;8903;-70
2022/01/13 04:08:18;;;;;;;;;136.75;123.50;2.30;62.20;;;;;;5035693;28;8895;-71
2022/01/13 04:10:47;;;;;;;;;142.25;123.75;2.40;61.70;;;;;;5036347;28;8785;-71
2022/01/13 04:13:33;;;;;;;;;141.50;127.75;2.30;61.80;;;;;;5035808;28;8871;-70
2022/01/13 04:15:58;;;;;;;;;163.00;145.50;2.00;62.10;;;;;;5035699;28;8821;-71
2022/01/13 04:18:24;;;;;;;;;141.75;130.50;2.30;62.20;;;;;;5036028;28;8772;-71
2022/01/13 04:20:50;;;;;;;;;137.50;125.50;2.40;61.20;;;;;;5036221;28;9447;-71
2022/01/13 04:23:16;;;;;;;;;140.50;119.75;2.50;60.90;;;;;;5035671;28;9396;-71
2022/01/13 04:25:45;;;;;;;;;130.50;114.00;2.50;60.80;;;;;;5035609;28;8777;-71
2022/01/13 04:28:12;;;;;;;;;134.25;124.00;2.50;60.60;;;;;;5035514;28;8789;-71
2022/01/13 04:33:07;;;;;;;;;116.00;102.50;2.60;59.60;;;;;;5035517;28;8774;-71
2022/01/13 04:35:33;;;;;;;;;131.25;129.25;2.80;59.10;;;;;;5035352;28;8841;-70
2022/01/13 04:37:59;;;;;;;;;166.25;151.00;2.50;60.10;;;;;;5035402;28;8809;-70
2022/01/13 04:40:25;;;;;;;;;200.75;181.25;2.10;61.30;;;;;;5034312;28;8885;-71
2022/01/13 04:42:54;;;;;;;;;224.75;204.25;2.20;61.70;;;;;;5035290;28;8781;-73
2022/01/13 04:45:21;;;;;;;;;193.50;177.25;2.40;61.50;;;;;;5035475;28;8792;-72
2022/01/13 04:47:48;;;;;;;;;220.75;194.25;2.10;62.10;;;;;;5035168;28;8770;-72
2022/01/13 04:50:14;;;;;;;;;199.00;173.50;2.20;62.10;;;;;;5035140;28;8797;-71
2022/01/13 04:52:40;;;;;;;;;182.00;165.75;2.10;62.80;;;;;;5035075;28;8781;-71
2022/01/13 04:55:10;;;;;;;;;184.25;168.75;2.30;62.10;;;;;;5035216;28;8805;-72
2022/01/13 04:57:36;;;;;;;;;181.75;159.25;2.50;61.20;;;;;;5035004;28;8773;-71
2022/01/13 05:00:07;;;;;;;;;202.50;181.00;2.40;61.20;;;;;;5035131;28;8785;-71
2022/01/13 05:02:33;;;;;;;;;188.50;166.75;2.20;61.70;;;;;;5035099;28;8839;-70
2022/01/13 05:04:59;;;;;;;;;184.25;160.50;2.20;61.90;;;;;;5034856;28;8770;-71
2022/01/13 05:07:25;;;;;;;;;203.00;179.00;2.00;62.60;;;;;;5034891;28;8806;-71
2022/01/13 05:09:50;;;;;;;;;169.00;153.00;1.90;62.90;;;;;;5034844;28;8870;-70
2022/01/13 05:12:17;;;;;;;;;159.75;141.50;2.00;62.70;;;;;;5034841;28;8766;-72
2022/01/13 05:14:46;;;;;;;;;165.75;150.00;1.70;63.20;;;;;;5034658;28;8842;-71
2022/01/13 05:17:34;;;;;;;;;179.25;156.25;1.80;63.70;;;;;;5034991;28;8773;-71
2022/01/13 05:20:13;;;;;;;;;164.50;155.00;1.80;63.40;;;;;;5034674;28;9338;-71
2022/01/13 05:22:39;;;;;;;;;144.75;136.00;1.80;63.30;;;;;;5034970;28;8777;-70
2022/01/13 05:25:05;;;;;;;;;163.75;150.00;1.60;64.00;;;;;;5034574;28;8773;-71
2022/01/13 05:27:31;;;;;;;;;174.25;156.00;1.40;65.10;;;;;;5034506;28;8884;-71
2022/01/13 05:29:58;;;;;;;;;169.25;151.50;1.50;65.00;;;;;;5034332;28;8805;-71
2022/01/13 05:32:24;;;;;;;;;150.75;126.75;1.70;64.30;;;;;;5034851;28;8849;-72
2022/01/13 05:34:50;;;;;;;;;178.25;157.00;1.90;63.30;;;;;;5034583;28;8928;-70
2022/01/13 05:37:16;;;;;;;;;189.00;166.00;1.90;63.30;;;;;;5034404;28;8887;-71
2022/01/13 05:39:42;;;;;;;;;191.50;170.00;2.00;63.40;;;;;;5034644;28;8788;-69
2022/01/13 05:42:07;;;;;;;;;158.75;147.25;1.70;63.50;;;;;;5034375;28;8762;-70
2022/01/13 05:44:38;;;;;;;;;190.50;172.00;1.70;64.40;;;;;;5034593;28;8761;-70
2022/01/13 05:47:05;;;;;;;;;164.25;149.50;1.60;64.80;;;;;;5034138;28;8758;-71
2022/01/13 05:49:31;;;;;;;;;170.25;145.25;0.90;66.90;;;;;;5034239;28;8758;-70
2022/01/13 05:51:57;;;;;;;;;158.25;141.25;1.00;67.90;;;;;;5034256;28;8769;-70
2022/01/13 05:54:22;;;;;;;;;159.00;137.00;0.90;68.00;;;;;;5034147;28;8922;-66
2022/01/13 05:56:48;;;;;;;;;161.00;143.50;1.00;67.70;;;;;;5034205;28;8808;-66
2022/01/13 05:59:14;;;;;;;;;143.25;125.25;1.20;66.90;;;;;;5034548;28;8754;-70
2022/01/13 06:01:40;;;;;;;;;145.75;125.25;1.40;66.00;;;;;;5034400;28;8784;-71
2022/01/13 06:04:05;;;;;;;;;143.00;120.75;1.30;65.50;;;;;;5034152;28;8821;-71
2022/01/13 06:06:31;;;;;;;;;133.25;118.00;1.50;64.80;;;;;;5034163;28;8766;-71
2022/01/13 06:08:57;;;;;;;;;124.50;109.50;1.30;65.40;;;;;;5034515;28;8924;-71
2022/01/13 06:11:24;;;;;;;;;124.00;114.00;0.70;67.70;;;;;;5034107;28;8770;-70
2022/01/13 06:13:50;;;;;;;;;119.75;110.25;0.40;70.10;;;;;;5034059;28;8777;-71
2022/01/13 06:16:16;;;;;;;;;130.50;119.50;0.70;69.20;;;;;;5036593;28;8832;-70
2022/01/13 06:18:42;;;;;;;;;155.75;138.75;0.80;69.00;;;;;;5037973;28;8781;-70
2022/01/13 06:21:08;;;;;;;;;176.75;159.75;0.80;69.30;;;;;;5037910;28;8793;-70
2022/01/13 06:23:33;;;;;;;;;157.75;139.50;0.90;68.80;;;;;;5037895;28;8778;-70
2022/01/13 06:26:01;;;;;;;;;156.25;142.00;1.30;66.90;;;;;;5038036;28;8851;-70
2022/01/13 06:28:27;;;;;;;;;149.00;136.50;1.50;65.60;;;;;;5037619;28;8810;-70
2022/01/13 06:30:53;;;;;;;;;151.00;139.25;1.30;66.30;;;;;;5037995;28;8774;-71
2022/01/13 06:33:19;;;;;;;;;151.25;137.25;1.20;66.90;;;;;;5037425;28;8867;-70
2022/01/13 06:35:46;;;;;;;;;159.50;143.75;1.10;67.20;;;;;;5037544;28;8809;-71
2022/01/13 06:38:12;;;;;;;;;144.50;126.50;1.00;67.80;;;;;;5037750;28;8814;-71
2022/01/13 06:40:38;;;;;;;;;170.75;154.00;1.20;66.90;;;;;;5037488;28;8905;-71
2022/01/13 06:43:04;;;;;;;;;221.00;195.00;1.40;66.00;;;;;;5037375;28;8769;-70
2022/01/13 06:45:30;;;;;;;;;220.00;195.00;1.50;65.60;;;;;;5037486;28;8781;-71
2022/01/13 06:47:55;;;;;;;;;221.25;194.50;1.70;64.80;;;;;;5037453;28;8816;-71
2022/01/13 06:50:21;;;;;;;;;202.50;174.25;1.70;63.90;;;;;;5037438;28;8782;-71
2022/01/13 06:52:48;;;;;;;;;189.50;169.75;1.70;64.70;;;;;;5036302;28;8960;-71
2022/01/13 06:55:14;;;;;;;;;193.00;177.00;1.70;63.80;;;;;;5037219;28;8805;-70
2022/01/13 06:57:39;;;;;;;;;177.75;164.50;1.30;66.00;;;;;;5037539;28;8850;-71
2022/01/13 07:00:07;;;;;;;;;158.25;141.00;1.30;66.30;;;;;;5037512;28;8784;-70
2022/01/13 07:02:33;;;;;;;;;129.25;116.75;1.10;67.20;;;;;;5037160;28;8773;-71
2022/01/13 07:04:59;;;;;;;;;174.50;145.75;1.40;66.40;;;;;;5037139;28;8845;-70
2022/01/13 07:07:27;;;;;;;;;162.75;145.50;1.10;67.90;;;;;;5037120;28;8821;-71
2022/01/13 07:09:53;;;;;;;;;138.75;128.50;1.00;68.10;;;;;;5036961;28;8788;-70
2022/01/13 07:12:19;;;;;;;;;146.50;131.50;1.10;68.50;;;;;;5036937;28;8868;-71
2022/01/13 07:14:45;;;;;;;;;140.75;125.50;1.30;66.90;;;;;;5036895;28;8797;-71
2022/01/13 07:17:11;;;;;;;;;132.75;118.50;1.40;66.60;;;;;;5036780;28;8758;-71
2022/01/13 07:19:37;;;;;;;;;152.75;135.00;1.80;64.60;;;;;;5036707;28;8812;-71
2022/01/13 07:22:03;;;;;;;;;147.25;127.50;2.30;62.90;;;;;;5037003;28;8788;-69
2022/01/13 07:24:29;;;;;;;;;147.25;125.50;1.90;63.70;;;;;;5037029;28;8758;-62
2022/01/13 07:26:55;;;;;;;;;138.25;123.25;2.00;63.70;;;;;;5035582;28;8757;-71
2022/01/13 07:29:21;;;;;;;;;116.50;103.25;1.60;64.60;;;;;;5036542;28;8814;-70
2022/01/13 07:31:47;;;;;;;;;140.75;121.75;1.50;65.10;;;;;;5036676;28;8896;-69
2022/01/13 07:34:13;;;;;;;;;152.00;138.25;1.60;64.50;;;;;;5036740;28;8810;-68
2022/01/13 07:36:40;;;;;;;;;141.75;123.25;1.40;65.80;;;;;;5036579;28;8786;-69
2022/01/13 07:39:07;;;;;;;;;163.00;143.00;1.50;65.10;;;;;;5036889;28;8940;-71
2022/01/13 07:41:36;;;;;;;;;137.50;128.50;1.50;66.10;;;;;;5036507;28;8895;-70
2022/01/13 07:44:02;;;;;;;;;149.75;130.00;1.60;65.00;;;;;;5036591;28;8770;-68
2022/01/13 07:46:28;;;;;;;;;148.50;129.00;1.20;67.40;;;;;;5036321;28;9438;-71
2022/01/13 07:48:54;;;;;;;;;150.50;134.75;1.50;66.40;;;;;;5035257;28;8766;-72
2022/01/13 07:51:20;;;;;;;;;158.25;142.00;1.40;66.60;;;;;;5036334;28;8781;-72
2022/01/13 07:53:46;;;;;;;;;181.00;160.00;1.30;67.50;;;;;;5036319;28;8835;-71
2022/01/13 07:56:12;;;;;;;;;161.25;146.75;1.30;66.80;;;;;;5036150;28;8813;-73
2022/01/13 07:58:38;;;;;;;;;146.25;136.25;1.40;66.90;;;;;;5036100;28;8804;-72
2022/01/13 08:01:04;;;;;;;;;141.00;124.50;1.50;66.00;;;;;;5036144;28;8758;-72
2022/01/13 08:03:30;;;;;;;;;158.50;134.75;1.50;65.20;;;;;;5036009;28;8792;-71
2022/01/13 08:05:58;;;;;;;;;125.25;114.25;1.40;66.50;;;;;;5035856;28;8783;-71
2022/01/13 08:08:24;;;;;;;;;150.50;135.75;1.50;66.10;;;;;;5036110;28;8940;-71
2022/01/13 08:10:50;;;;;;;;;157.00;142.00;1.90;64.60;;;;;;5036252;28;8781;-71
2022/01/13 08:13:15;;;;;;;;;140.00;125.50;2.20;63.80;;;;;;5036108;28;8860;-70
2022/01/13 08:15:41;;;;;;;;;133.00;121.50;2.20;63.70;;;;;;5035769;28;8798;-71
2022/01/13 08:20:51;;;;;;;;;135.00;118.00;2.00;64.40;;;;;;5035854;28;8766;-71
2022/01/13 08:23:17;;;;;;;;;141.00;121.00;2.40;63.20;;;;;;5035659;28;8867;-70
2022/01/13 08:25:43;;;;;;;;;131.25;121.75;2.50;63.00;;;;;;5035656;28;8765;-70
2022/01/13 08:28:10;;;;;;;;;126.25;111.00;2.70;62.20;;;;;;5035565;28;8825;-71
2022/01/13 08:30:36;;;;;;;;;140.00;127.00;2.80;61.60;;;;;;5035497;28;8896;-71
2022/01/13 08:33:02;;;;;;;;;137.75;123.50;2.90;61.70;;;;;;5035734;28;9369;-71
2022/01/13 08:35:28;;;;;;;;;151.50;137.50;2.60;62.10;;;;;;5035542;28;8797;-70
2022/01/13 08:37:54;;;;;;;;;155.50;136.00;2.60;62.90;;;;;;5034171;28;8912;-71
2022/01/13 08:40:21;;;;;;;;;134.25;125.50;2.40;64.10;;;;;;5035309;28;8804;-71
2022/01/13 08:42:47;;;;;;;;;126.00;105.75;2.20;64.60;;;;;;5035324;28;8761;-71
2022/01/13 08:45:13;;;;;;;;;126.50;113.00;1.70;66.20;;;;;;5035464;28;8788;-71
2022/01/13 08:47:39;;;;;;;;;120.50;114.25;1.60;67.70;;;;;;5035213;28;8762;-70
2022/01/13 08:50:07;;;;;;;;;110.50;95.50;1.70;67.10;;;;;;5035398;28;8766;-71
2022/01/13 08:52:38;;;;;;;;;117.25;106.00;1.60;67.10;;;;;;5035308;28;8757;-70
2022/01/13 08:55:06;;;;;;;;;108.00;96.75;2.30;65.40;;;;;;5034976;28;8825;-70
2022/01/13 08:57:33;;;;;;;;;105.75;88.75;2.00;66.10;;;;;;5035035;28;8774;-71
2022/01/13 08:59:59;;;;;;;;;103.75;85.25;1.70;67.10;;;;;;5035243;28;8765;-71
2022/01/13 09:02:25;;;;;;;;;104.00;85.50;1.70;68.00;;;;;;5034869;28;9465;-71
2022/01/13 09:04:50;;;;;;;;;103.00;85.50;1.80;68.20;;;;;;5035145;28;8778;-71
2022/01/13 09:07:16;;;;;;;;;100.50;80.50;1.90;66.80;;;;;;5034899;28;8912;-72
2022/01/13 09:09:42;;;;;;;;;103.50;85.00;1.90;66.70;;;;;;5034986;28;8765;-71
2022/01/13 09:12:08;;;;;;;;;104.25;91.75;1.80;66.40;;;;;;5034945;28;8816;-72
2022/01/13 09:14:34;;;;;;;;;109.75;90.75;2.00;66.70;;;;;;5034436;28;8805;-72
2022/01/13 09:17:01;;;;;;;;;105.00;79.75;2.30;65.10;;;;;;5034598;28;8785;-71
2022/01/13 09:19:27;;;;;;;;;114.50;100.00;1.70;65.90;;;;;;5034647;28;8765;-71
2022/01/13 09:21:53;;;;;;;;;109.75;95.00;1.30;68.10;;;;;;5034451;28;8855;-71
2022/01/13 09:24:21;;;;;;;;;111.00;98.75;1.40;69.10;;;;;;5034292;28;8782;-71
2022/01/13 09:26:47;;;;;;;;;108.25;92.25;1.50;68.10;;;;;;5034596;28;9466;-71
2022/01/13 09:29:14;;;;;;;;;111.50;91.75;1.30;68.90;;;;;;5034322;28;8798;-71
2022/01/13 09:31:42;;;;;;;;;111.25;99.50;0.80;70.70;;;;;;5034737;28;8880;-71
2022/01/13 09:34:09;;;;;;;;;108.67;88.33;1.00;70.90;;;;;;5034337;28;8897;-71
2022/01/13 09:36:35;;;;;;;;;117.75;105.50;1.10;69.80;;;;;;5034398;28;8781;-71
2022/01/13 09:39:04;;;;;;;;;106.50;89.50;1.10;69.80;;;;;;5034786;28;8801;-70
2022/01/13 09:41:32;;;;;;;;;107.00;93.00;1.20;67.90;;;;;;5034411;28;8942;-71
2022/01/13 09:43:59;;;;;;;;;108.50;91.00;1.10;70.10;;;;;;5034388;28;8781;-71
2022/01/13 09:46:26;;;;;;;;;102.75;78.25;1.80;67.00;;;;;;5034545;28;9491;-71
2022/01/13 09:48:56;;;;;;;;;90.25;69.75;2.00;64.50;;;;;;5034319;28;8770;-71
2022/01/13 09:51:25;;;;;;;;;106.75;91.25;2.00;62.10;;;;;;5033664;28;8788;-71
2022/01/13 09:53:52;;;;;;;;;103.00;82.50;1.90;63.80;;;;;;5034245;28;8782;-71
2022/01/13 09:56:18;;;;;;;;;82.75;68.00;1.40;64.30;;;;;;5034180;28;8931;-70
2022/01/13 09:58:44;;;;;;;;;105.00;89.00;1.50;65.40;;;;;;5034153;28;8871;-71
2022/01/13 10:01:11;;;;;;;;;104.25;91.00;1.60;64.80;;;;;;5034354;28;8781;-71
2022/01/13 10:03:37;;;;;;;;;101.00;86.50;2.10;64.30;;;;;;5034634;28;8871;-71
2022/01/13 10:06:15;;;;;;;;;108.25;95.75;2.20;62.00;;;;;;5034009;28;8793;-71
2022/01/13 10:08:56;;;;;;;;;101.25;79.75;2.50;61.80;;;;;;5034036;28;8840;-71
2022/01/13 10:11:36;;;;;;;;;95.25;74.00;2.70;60.40;;;;;;5034153;28;8765;-71
2022/01/13 10:14:16;;;;;;;;;91.25;70.75;3.00;58.00;;;;;;5034036;28;8785;-71
2022/01/13 10:17:04;;;;;;;;;89.75;73.25;3.20;57.80;;;;;;5034037;28;8789;-71
2022/01/13 10:19:32;;;;;;;;;91.50;77.25;3.40;55.60;;;;;;5034099;28;8758;-70
2022/01/13 10:22:05;;;;;;;;;91.00;82.50;3.70;56.50;;;;;;5034000;28;8781;-71
2022/01/13 10:24:34;;;;;;;;;92.50;73.50;6.20;52.40;;;;;;5034290;28;8777;-71
2022/01/13 10:27:04;;;;;;;;;81.50;69.25;9.40;45.90;;;;;;5033975;28;8896;-70
2022/01/13 10:29:52;;;;;;;;;78.50;66.75;13.40;38.80;;;;;;5033798;28;9505;-70
2022/01/13 10:32:23;;;;;;;;;83.25;72.25;14.10;34.40;;;;;;5034086;28;8777;-70
2022/01/13 10:34:59;;;;;;;;;87.00;72.75;16.70;31.20;;;;;;5033748;28;8932;-70
2022/01/13 10:37:34;;;;;;;;;77.75;69.75;18.60;28.40;;;;;;5033953;28;8790;-70
2022/01/13 10:40:05;;;;;;;;;82.00;67.25;17.30;27.90;;;;;;5033831;28;8770;-70
2022/01/13 10:45:06;;;;;;;;;74.75;64.50;19.80;26.20;;;;;;5033836;28;8766;-70
2022/01/13 10:47:32;;;;;;;;;71.75;58.00;18.00;27.40;;;;;;5034247;28;9098;-70
2022/01/13 10:50:09;;;;;;;;;60.67;48.67;18.90;26.50;;;;;;5033631;28;8792;-72
2022/01/13 10:52:35;;;;;;;;;59.67;49.33;18.90;25.30;;;;;;5034119;28;8881;-70
2022/01/13 10:55:07;;;;;;;;;55.67;46.33;16.90;27.20;;;;;;5033706;28;9543;-71
2022/01/13 10:57:33;;;;;;;;;60.33;50.00;18.00;25.80;;;;;;5033485;28;8793;-71
2022/01/13 10:59:59;;;;;;;;;59.33;50.00;18.30;26.90;;;;;;5033583;28;8770;-71
2022/01/13 11:02:26;;;;;;;;;59.00;48.67;17.00;27.60;;;;;;5036235;28;8864;-71
2022/01/13 11:04:53;;;;;;;;;56.00;45.67;16.40;27.80;;;;;;5037211;28;8754;-71
2022/01/13 11:07:23;;;;;;;;;58.67;47.67;14.60;29.00;;;;;;5037317;28;8789;-70
2022/01/13 11:09:55;;;;;;;;;63.33;49.00;16.80;27.50;;;;;;5037426;28;8870;-71
2022/01/13 11:12:37;;;;;;;;;65.50;51.75;16.00;27.70;;;;;;5037428;28;9511;-72
2022/01/13 11:15:08;;;;;;;;;61.33;50.33;15.40;27.60;;;;;;5036868;28;8851;-71
2022/01/13 11:17:38;;;;;;;;;58.00;47.67;17.30;27.00;;;;;;5036968;28;8773;-71
2022/01/13 11:20:10;;;;;;;;;55.33;47.00;17.90;26.40;;;;;;5036809;28;8801;-71
2022/01/13 11:22:38;;;;;;;;;55.00;46.00;16.90;26.80;;;;;;5037045;28;8834;-70
2022/01/13 11:25:14;;;;;;;;;52.00;43.33;15.20;28.40;;;;;;5036789;28;8773;-71
2022/01/13 11:27:42;;;;;;;;;62.67;49.00;15.30;27.70;;;;;;5036654;28;8792;-70
2022/01/13 11:30:11;;;;;;;;;60.25;47.00;14.60;28.40;;;;;;5036827;28;8847;-68
2022/01/13 11:32:40;;;;;;;;;66.00;54.00;15.40;28.90;;;;;;5036882;28;8757;-69
2022/01/13 11:35:07;;;;;;;;;58.67;48.00;17.80;26.50;;;;;;5035537;28;8905;-70
2022/01/13 11:37:34;;;;;;;;;62.00;49.67;16.60;26.60;;;;;;5036865;28;8818;-69
2022/01/13 11:40:00;;;;;;;;;58.33;48.00;18.30;26.20;;;;;;5036449;28;8770;-70
2022/01/13 11:42:26;;;;;;;;;61.00;50.00;18.90;25.40;;;;;;5036470;28;8796;-70
2022/01/13 11:45:13;;;;;;;;;71.75;54.75;19.20;25.10;;;;;;5036521;28;8861;-70
2022/01/13 11:47:39;;;;;;;;;60.00;49.67;19.50;25.10;;;;;;5036427;28;8785;-69
2022/01/13 11:50:21;;;;;;;;;65.00;53.25;19.00;25.20;;;;;;5036282;28;8785;-70
2022/01/13 11:52:53;;;;;;;;;63.33;51.00;20.80;23.80;;;;;;5036303;28;8762;-69
2022/01/13 11:55:28;;;;;;;;;58.25;48.50;20.20;23.80;;;;;;5036302;28;8786;-69
2022/01/13 11:58:16;;;;;;;;;60.33;50.00;18.30;25.40;;;;;;5036190;28;8766;-71
2022/01/13 12:00:45;;;;;;;;;64.25;52.75;18.30;25.20;;;;;;5036043;28;8761;-70
2022/01/13 12:03:29;;;;;;;;;65.25;53.25;17.00;25.90;;;;;;5036011;28;8800;-71
2022/01/13 12:05:56;;;;;;;;;61.67;50.67;16.50;27.00;;;;;;5035979;28;8804;-71
2022/01/13 12:08:41;;;;;;;;;58.67;48.67;17.60;26.20;;;;;;5036224;28;8878;-71
2022/01/13 12:11:08;;;;;;;;;63.25;52.25;17.20;26.20;;;;;;5036260;28;8773;-72
2022/01/13 12:13:40;;;;;;;;;63.67;52.33;18.20;26.30;;;;;;5035463;28;8773;-70
2022/01/13 12:16:09;;;;;;;;;56.75;47.50;19.70;24.80;;;;;;5036029;28;8832;-70
2022/01/13 12:19:06;;;;;;;;;62.75;50.00;17.10;26.30;;;;;;5035999;28;8765;-70
2022/01/13 12:21:37;;;;;;;;;60.75;50.25;16.20;28.10;;;;;;5035820;28;8804;-70
2022/01/13 12:24:04;;;;;;;;;66.00;53.00;16.80;26.70;;;;;;5036028;28;9665;-70
2022/01/13 12:26:33;;;;;;;;;61.00;50.00;18.60;25.90;;;;;;5035640;28;8788;-71
2022/01/13 12:29:12;;;;;;;;;63.75;52.50;18.90;25.20;;;;;;5035391;28;8832;-67
2022/01/13 12:31:55;;;;;;;;;56.50;47.25;20.40;24.40;;;;;;5034071;28;8766;-67
2022/01/13 12:34:33;;;;;;;;;58.00;48.33;21.60;23.60;;;;;;5035673;28;8880;-67
2022/01/13 12:37:14;;;;;;;;;58.25;48.25;19.90;23.40;;;;;;5035477;28;8761;-67
2022/01/13 12:39:42;;;;;;;;;50.75;43.75;19.70;24.40;;;;;;5035358;28;8840;-67
2022/01/13 12:42:14;;;;;;;;;58.33;48.33;17.20;25.90;;;;;;5035565;28;9443;-67
2022/01/13 12:47:26;;;;;;;;;60.00;48.75;16.30;26.60;;;;;;5035380;28;8770;-64
2022/01/13 12:49:52;;;;;;;;;58.67;47.67;17.30;26.70;;;;;;5035271;28;8774;-65
2022/01/13 12:52:24;;;;;;;;;52.33;45.00;15.60;27.70;;;;;;5035293;28;8765;-65
2022/01/13 12:54:51;;;;;;;;;54.33;42.67;15.10;28.60;;;;;;5035264;28;8832;-66
2022/01/13 12:57:17;;;;;;;;;60.25;48.50;15.60;27.30;;;;;;5035079;28;8796;-67
2022/01/13 12:59:44;;;;;;;;;61.50;49.75;15.90;28.10;;;;;;5035033;28;8790;-70
2022/01/13 13:02:10;;;;;;;;;66.50;52.75;14.60;29.20;;;;;;5034999;28;8831;-68
2022/01/13 13:04:38;;;;;;;;;65.00;51.75;16.00;29.10;;;;;;5035157;28;8778;-66
2022/01/13 13:07:05;;;;;;;;;65.50;52.50;15.00;28.40;;;;;;5034821;28;8789;-66
2022/01/13 13:09:31;;;;;;;;;66.00;52.75;13.90;30.10;;;;;;5035057;28;8785;-67
2022/01/13 13:12:03;;;;;;;;;66.00;53.75;13.10;32.00;;;;;;5034683;28;8777;-67